sensor_id;sensor_type;location;lat;lon;timestamp;P1;durP1;ratioP1;P2;durP2;ratioP2
41394;SDS011;27136;53.810;8.886;2022-08-03T04:27:36;9.85;;;6.95;;
41394;SDS011;27136;53.810;8.886;2022-08-03T04:30:04;9.50;;;7.47;;
41394;SDS011;27136;53.810;8.886;2022-08-03T04:32:31;7.80;;;7.00;;
41394;SDS011;27136;53.810;8.886;2022-08-03T04:34:57;8.88;;;6.93;;
41394;SDS011;27136;53.810;8.886;2022-08-03T04:37:32;8.07;;;6.43;;
41394;SDS011;27136;53.810;8.886;2022-08-03T04:40:05;10.07;;;6.93;;
41394;SDS011;27136;53.810;8.886;2022-08-03T04:42:33;7.43;;;6.55;;
41394;SDS011;27136;53.810;8.886;2022-08-03T04:45:00;7.93;;;7.13;;
41394;SDS011;27136;53.810;8.886;2022-08-03T04:47:29;7.32;;;6.55;;
41394;SDS011;27136;53.810;8.886;2022-08-03T04:49:57;8.50;;;6.88;;
41394;SDS011;27136;53.810;8.886;2022-08-03T04:52:24;7.20;;;6.10;;
41394;SDS011;27136;53.810;8.886;2022-08-03T04:54:49;7.72;;;6.15;;
41394;SDS011;27136;53.810;8.886;2022-08-03T04:57:15;8.65;;;6.28;;
41394;SDS011;27136;53.810;8.886;2022-08-03T04:59:40;7.68;;;6.07;;
41394;SDS011;27136;53.810;8.886;2022-08-03T05:02:06;8.40;;;6.47;;
41394;SDS011;27136;53.810;8.886;2022-08-03T05:04:32;8.30;;;6.43;;
41394;SDS011;27136;53.810;8.886;2022-08-03T05:06:57;7.13;;;6.13;;
41394;SDS011;27136;53.810;8.886;2022-08-03T05:09:23;9.50;;;6.05;;
41394;SDS011;27136;53.810;8.886;2022-08-03T05:11:48;11.30;;;6.22;;
41394;SDS011;27136;53.810;8.886;2022-08-03T05:14:14;10.27;;;5.88;;
41394;SDS011;27136;53.810;8.886;2022-08-03T05:16:39;8.95;;;6.15;;
41394;SDS011;27136;53.810;8.886;2022-08-03T05:19:05;8.95;;;6.70;;
41394;SDS011;27136;53.810;8.886;2022-08-03T05:21:30;8.80;;;6.53;;
41394;SDS011;27136;53.810;8.886;2022-08-03T05:23:56;7.40;;;5.88;;
41394;SDS011;27136;53.810;8.886;2022-08-03T05:26:21;8.93;;;6.20;;
41394;SDS011;27136;53.810;8.886;2022-08-03T05:28:47;8.93;;;6.35;;
41394;SDS011;27136;53.810;8.886;2022-08-03T05:31:12;11.40;;;6.97;;
41394;SDS011;27136;53.810;8.886;2022-08-03T05:33:38;9.40;;;6.13;;
41394;SDS011;27136;53.810;8.886;2022-08-03T05:36:04;7.15;;;6.40;;
41394;SDS011;27136;53.810;8.886;2022-08-03T05:38:30;9.48;;;6.50;;
41394;SDS011;27136;53.810;8.886;2022-08-03T05:40:56;10.63;;;6.75;;
41394;SDS011;27136;53.810;8.886;2022-08-03T05:43:22;9.63;;;6.95;;
41394;SDS011;27136;53.810;8.886;2022-08-03T05:45:47;8.65;;;6.80;;
41394;SDS011;27136;53.810;8.886;2022-08-03T05:48:13;8.18;;;6.00;;
41394;SDS011;27136;53.810;8.886;2022-08-03T05:50:38;11.93;;;6.88;;
41394;SDS011;27136;53.810;8.886;2022-08-03T05:53:04;8.57;;;7.13;;
41394;SDS011;27136;53.810;8.886;2022-08-03T05:55:29;7.25;;;6.47;;
41394;SDS011;27136;53.810;8.886;2022-08-03T05:57:55;9.77;;;6.68;;
41394;SDS011;27136;53.810;8.886;2022-08-03T06:00:21;7.88;;;6.28;;
41394;SDS011;27136;53.810;8.886;2022-08-03T06:02:46;8.20;;;7.25;;
41394;SDS011;27136;53.810;8.886;2022-08-03T06:05:12;8.40;;;6.45;;
41394;SDS011;27136;53.810;8.886;2022-08-03T06:07:37;8.25;;;6.20;;
41394;SDS011;27136;53.810;8.886;2022-08-03T06:10:03;8.35;;;5.85;;
41394;SDS011;27136;53.810;8.886;2022-08-03T06:12:29;8.20;;;6.45;;
41394;SDS011;27136;53.810;8.886;2022-08-03T06:14:55;7.93;;;6.18;;
41394;SDS011;27136;53.810;8.886;2022-08-03T06:17:21;7.07;;;6.10;;
41394;SDS011;27136;53.810;8.886;2022-08-03T06:19:46;8.07;;;5.50;;
41394;SDS011;27136;53.810;8.886;2022-08-03T06:22:12;8.07;;;5.47;;
41394;SDS011;27136;53.810;8.886;2022-08-03T06:24:37;7.57;;;5.15;;
41394;SDS011;27136;53.810;8.886;2022-08-03T06:27:03;7.97;;;5.25;;
41394;SDS011;27136;53.810;8.886;2022-08-03T06:29:28;8.65;;;5.40;;
41394;SDS011;27136;53.810;8.886;2022-08-03T06:31:54;7.03;;;5.05;;
41394;SDS011;27136;53.810;8.886;2022-08-03T06:34:20;7.57;;;5.40;;
41394;SDS011;27136;53.810;8.886;2022-08-03T06:36:46;7.18;;;5.55;;
41394;SDS011;27136;53.810;8.886;2022-08-03T06:39:14;6.50;;;5.13;;
41394;SDS011;27136;53.810;8.886;2022-08-03T06:41:39;5.85;;;4.63;;
41394;SDS011;27136;53.810;8.886;2022-08-03T06:44:05;8.70;;;5.10;;
41394;SDS011;27136;53.810;8.886;2022-08-03T06:46:30;8.10;;;4.38;;
41394;SDS011;27136;53.810;8.886;2022-08-03T06:48:56;6.07;;;4.38;;
41394;SDS011;27136;53.810;8.886;2022-08-03T06:51:21;10.23;;;4.55;;
41394;SDS011;27136;53.810;8.886;2022-08-03T06:53:47;5.90;;;3.88;;
41394;SDS011;27136;53.810;8.886;2022-08-03T06:56:13;5.70;;;4.05;;
41394;SDS011;27136;53.810;8.886;2022-08-03T06:58:38;5.93;;;3.65;;
41394;SDS011;27136;53.810;8.886;2022-08-03T07:01:04;6.85;;;3.58;;
41394;SDS011;27136;53.810;8.886;2022-08-03T07:03:29;7.57;;;3.78;;
41394;SDS011;27136;53.810;8.886;2022-08-03T07:05:55;5.50;;;3.45;;
41394;SDS011;27136;53.810;8.886;2022-08-03T07:08:21;7.22;;;2.90;;
41394;SDS011;27136;53.810;8.886;2022-08-03T07:10:46;6.05;;;2.92;;
41394;SDS011;27136;53.810;8.886;2022-08-03T07:13:12;8.30;;;2.70;;
41394;SDS011;27136;53.810;8.886;2022-08-03T07:15:38;4.70;;;2.40;;
41394;SDS011;27136;53.810;8.886;2022-08-03T07:18:04;6.47;;;2.75;;
41394;SDS011;27136;53.810;8.886;2022-08-03T07:20:30;5.00;;;2.88;;
41394;SDS011;27136;53.810;8.886;2022-08-03T07:22:56;5.65;;;3.17;;
41394;SDS011;27136;53.810;8.886;2022-08-03T07:25:21;5.25;;;2.60;;
41394;SDS011;27136;53.810;8.886;2022-08-03T07:27:47;6.05;;;2.70;;
41394;SDS011;27136;53.810;8.886;2022-08-03T07:30:14;6.03;;;2.88;;
41394;SDS011;27136;53.810;8.886;2022-08-03T07:32:40;5.55;;;2.90;;
41394;SDS011;27136;53.810;8.886;2022-08-03T07:35:06;5.03;;;2.75;;
41394;SDS011;27136;53.810;8.886;2022-08-03T07:37:32;7.50;;;2.65;;
41394;SDS011;27136;53.810;8.886;2022-08-03T07:39:58;7.18;;;3.30;;
41394;SDS011;27136;53.810;8.886;2022-08-03T07:42:27;7.32;;;2.50;;
41394;SDS011;27136;53.810;8.886;2022-08-03T07:44:54;7.60;;;3.00;;
41394;SDS011;27136;53.810;8.886;2022-08-03T07:47:23;6.70;;;2.90;;
41394;SDS011;27136;53.810;8.886;2022-08-03T07:49:54;6.05;;;2.50;;
41394;SDS011;27136;53.810;8.886;2022-08-03T07:52:20;5.68;;;2.97;;
41394;SDS011;27136;53.810;8.886;2022-08-03T07:55:05;8.18;;;2.85;;
41394;SDS011;27136;53.810;8.886;2022-08-03T07:57:31;4.13;;;2.13;;
41394;SDS011;27136;53.810;8.886;2022-08-03T07:59:57;5.90;;;1.92;;
41394;SDS011;27136;53.810;8.886;2022-08-03T08:02:23;7.57;;;2.30;;
41394;SDS011;27136;53.810;8.886;2022-08-03T08:04:49;6.60;;;2.95;;
41394;SDS011;27136;53.810;8.886;2022-08-03T08:07:14;5.82;;;2.20;;
41394;SDS011;27136;53.810;8.886;2022-08-03T08:09:40;8.43;;;2.42;;
41394;SDS011;27136;53.810;8.886;2022-08-03T08:12:06;6.75;;;2.10;;
41394;SDS011;27136;53.810;8.886;2022-08-03T08:14:33;7.35;;;2.15;;
41394;SDS011;27136;53.810;8.886;2022-08-03T08:16:59;7.35;;;2.42;;
41394;SDS011;27136;53.810;8.886;2022-08-03T08:19:25;11.05;;;2.42;;
41394;SDS011;27136;53.810;8.886;2022-08-03T08:21:50;10.88;;;2.22;;
41394;SDS011;27136;53.810;8.886;2022-08-03T08:24:16;11.02;;;4.00;;
41394;SDS011;27136;53.810;8.886;2022-08-03T08:26:41;9.18;;;2.30;;
41394;SDS011;27136;53.810;8.886;2022-08-03T08:29:07;8.93;;;3.00;;
41394;SDS011;27136;53.810;8.886;2022-08-03T08:31:33;6.32;;;2.15;;
41394;SDS011;27136;53.810;8.886;2022-08-03T08:33:58;10.45;;;2.50;;
41394;SDS011;27136;53.810;8.886;2022-08-03T08:36:29;7.78;;;2.38;;
41394;SDS011;27136;53.810;8.886;2022-08-03T08:38:58;6.47;;;2.10;;
41394;SDS011;27136;53.810;8.886;2022-08-03T08:41:25;6.95;;;2.53;;
41394;SDS011;27136;53.810;8.886;2022-08-03T08:43:50;8.15;;;2.33;;
41394;SDS011;27136;53.810;8.886;2022-08-03T08:46:17;5.35;;;2.20;;
41394;SDS011;27136;53.810;8.886;2022-08-03T08:48:44;7.82;;;2.25;;
41394;SDS011;27136;53.810;8.886;2022-08-03T08:51:12;6.78;;;2.20;;
41394;SDS011;27136;53.810;8.886;2022-08-03T08:53:38;7.88;;;1.95;;
41394;SDS011;27136;53.810;8.886;2022-08-03T08:56:07;7.50;;;2.63;;
41394;SDS011;27136;53.810;8.886;2022-08-03T08:58:51;8.32;;;2.00;;
41394;SDS011;27136;53.810;8.886;2022-08-03T09:01:22;7.85;;;2.50;;
41394;SDS011;27136;53.810;8.886;2022-08-03T09:03:48;6.82;;;1.95;;
41394;SDS011;27136;53.810;8.886;2022-08-03T09:06:14;9.45;;;2.20;;
41394;SDS011;27136;53.810;8.886;2022-08-03T09:08:39;9.45;;;2.10;;
41394;SDS011;27136;53.810;8.886;2022-08-03T09:11:05;8.20;;;2.10;;
41394;SDS011;27136;53.810;8.886;2022-08-03T09:13:32;10.70;;;3.70;;
41394;SDS011;27136;53.810;8.886;2022-08-03T09:16:07;10.13;;;2.08;;
41394;SDS011;27136;53.810;8.886;2022-08-03T09:18:44;11.95;;;2.35;;
41394;SDS011;27136;53.810;8.886;2022-08-03T09:21:15;9.35;;;2.25;;
41394;SDS011;27136;53.810;8.886;2022-08-03T09:23:52;12.00;;;2.28;;
41394;SDS011;27136;53.810;8.886;2022-08-03T09:26:20;11.90;;;2.88;;
41394;SDS011;27136;53.810;8.886;2022-08-03T09:28:53;7.65;;;2.15;;
41394;SDS011;27136;53.810;8.886;2022-08-03T09:31:34;8.32;;;2.00;;
41394;SDS011;27136;53.810;8.886;2022-08-03T09:34:02;7.95;;;2.10;;
41394;SDS011;27136;53.810;8.886;2022-08-03T09:36:48;8.45;;;2.30;;
41394;SDS011;27136;53.810;8.886;2022-08-03T09:39:15;9.20;;;2.35;;
41394;SDS011;27136;53.810;8.886;2022-08-03T09:42:26;7.75;;;2.25;;
41394;SDS011;27136;53.810;8.886;2022-08-03T09:44:34;11.00;;;2.70;;
41394;SDS011;27136;53.810;8.886;2022-08-03T09:47:00;9.50;;;2.95;;
41394;SDS011;27136;53.810;8.886;2022-08-03T09:49:26;11.02;;;2.53;;
41394;SDS011;27136;53.810;8.886;2022-08-03T09:51:52;10.13;;;2.85;;
41394;SDS011;27136;53.810;8.886;2022-08-03T09:54:28;11.50;;;2.70;;
41394;SDS011;27136;53.810;8.886;2022-08-03T09:56:55;9.20;;;2.72;;
41394;SDS011;27136;53.810;8.886;2022-08-03T09:59:26;7.70;;;2.88;;
41394;SDS011;27136;53.810;8.886;2022-08-03T10:01:53;14.38;;;2.92;;
41394;SDS011;27136;53.810;8.886;2022-08-03T10:04:20;10.15;;;2.70;;
41394;SDS011;27136;53.810;8.886;2022-08-03T10:07:00;12.35;;;2.88;;
41394;SDS011;27136;53.810;8.886;2022-08-03T10:09:27;12.80;;;3.33;;
41394;SDS011;27136;53.810;8.886;2022-08-03T10:11:53;9.60;;;3.25;;
41394;SDS011;27136;53.810;8.886;2022-08-03T10:14:19;10.32;;;3.00;;
41394;SDS011;27136;53.810;8.886;2022-08-03T10:16:46;12.05;;;3.22;;
41394;SDS011;27136;53.810;8.886;2022-08-03T10:19:13;13.18;;;3.70;;
41394;SDS011;27136;53.810;8.886;2022-08-03T10:21:40;14.52;;;3.83;;
41394;SDS011;27136;53.810;8.886;2022-08-03T10:24:10;15.50;;;3.35;;
41394;SDS011;27136;53.810;8.886;2022-08-03T10:26:39;13.40;;;2.60;;
41394;SDS011;27136;53.810;8.886;2022-08-03T10:29:10;12.13;;;2.92;;
41394;SDS011;27136;53.810;8.886;2022-08-03T10:31:43;9.23;;;2.67;;
41394;SDS011;27136;53.810;8.886;2022-08-03T10:34:14;12.15;;;2.72;;
41394;SDS011;27136;53.810;8.886;2022-08-03T10:36:43;15.40;;;3.72;;
41394;SDS011;27136;53.810;8.886;2022-08-03T10:39:10;13.83;;;3.60;;
41394;SDS011;27136;53.810;8.886;2022-08-03T10:41:39;13.10;;;3.20;;
41394;SDS011;27136;53.810;8.886;2022-08-03T10:46:39;9.00;;;2.13;;
41394;SDS011;27136;53.810;8.886;2022-08-03T10:49:07;11.68;;;3.20;;
41394;SDS011;27136;53.810;8.886;2022-08-03T10:51:36;14.07;;;2.75;;
41394;SDS011;27136;53.810;8.886;2022-08-03T10:54:02;11.65;;;2.92;;
41394;SDS011;27136;53.810;8.886;2022-08-03T10:59:15;8.65;;;1.98;;
41394;SDS011;27136;53.810;8.886;2022-08-03T11:01:51;13.02;;;3.05;;
41394;SDS011;27136;53.810;8.886;2022-08-03T11:04:19;11.07;;;2.97;;
41394;SDS011;27136;53.810;8.886;2022-08-03T11:06:45;9.85;;;2.33;;
41394;SDS011;27136;53.810;8.886;2022-08-03T11:11:39;8.65;;;2.85;;
41394;SDS011;27136;53.810;8.886;2022-08-03T11:14:08;9.23;;;2.47;;
41394;SDS011;27136;53.810;8.886;2022-08-03T11:16:36;13.02;;;2.72;;
41394;SDS011;27136;53.810;8.886;2022-08-03T11:19:05;9.55;;;2.28;;
41394;SDS011;27136;53.810;8.886;2022-08-03T11:30:02;8.10;;;2.92;;
41394;SDS011;27136;53.810;8.886;2022-08-03T11:38:08;9.45;;;2.33;;
41394;SDS011;27136;53.810;8.886;2022-08-03T11:40:48;5.07;;;1.70;;
41394;SDS011;27136;53.810;8.886;2022-08-03T11:46:01;9.73;;;2.15;;
41394;SDS011;27136;53.810;8.886;2022-08-03T11:48:48;9.27;;;2.05;;
41394;SDS011;27136;53.810;8.886;2022-08-03T11:51:28;8.57;;;2.22;;
41394;SDS011;27136;53.810;8.886;2022-08-03T11:56:43;11.50;;;2.45;;
41394;SDS011;27136;53.810;8.886;2022-08-03T11:59:14;9.88;;;2.55;;
41394;SDS011;27136;53.810;8.886;2022-08-03T12:01:42;11.18;;;2.20;;
41394;SDS011;27136;53.810;8.886;2022-08-03T12:04:07;11.88;;;3.40;;
41394;SDS011;27136;53.810;8.886;2022-08-03T12:06:34;10.60;;;2.75;;
41394;SDS011;27136;53.810;8.886;2022-08-03T12:09:18;10.50;;;2.38;;
41394;SDS011;27136;53.810;8.886;2022-08-03T12:11:47;6.45;;;2.47;;
41394;SDS011;27136;53.810;8.886;2022-08-03T12:14:16;8.45;;;2.60;;
41394;SDS011;27136;53.810;8.886;2022-08-03T12:16:45;5.20;;;1.60;;
41394;SDS011;27136;53.810;8.886;2022-08-03T12:19:12;8.45;;;1.73;;
41394;SDS011;27136;53.810;8.886;2022-08-03T12:21:48;7.65;;;2.33;;
41394;SDS011;27136;53.810;8.886;2022-08-03T12:24:14;7.32;;;1.92;;
41394;SDS011;27136;53.810;8.886;2022-08-03T12:26:44;9.38;;;2.20;;
41394;SDS011;27136;53.810;8.886;2022-08-03T12:29:18;8.38;;;1.75;;
41394;SDS011;27136;53.810;8.886;2022-08-03T12:31:44;6.90;;;1.75;;
41394;SDS011;27136;53.810;8.886;2022-08-03T12:34:10;6.80;;;2.42;;
41394;SDS011;27136;53.810;8.886;2022-08-03T12:36:36;5.68;;;1.73;;
41394;SDS011;27136;53.810;8.886;2022-08-03T12:39:04;11.20;;;3.10;;
41394;SDS011;27136;53.810;8.886;2022-08-03T12:41:36;4.20;;;2.28;;
41394;SDS011;27136;53.810;8.886;2022-08-03T12:44:03;6.43;;;1.90;;
41394;SDS011;27136;53.810;8.886;2022-08-03T12:46:34;4.60;;;1.48;;
41394;SDS011;27136;53.810;8.886;2022-08-03T12:49:06;7.95;;;1.55;;
41394;SDS011;27136;53.810;8.886;2022-08-03T12:54:18;6.72;;;1.70;;
41394;SDS011;27136;53.810;8.886;2022-08-03T12:56:59;6.70;;;1.85;;
41394;SDS011;27136;53.810;8.886;2022-08-03T12:59:31;6.72;;;1.50;;
41394;SDS011;27136;53.810;8.886;2022-08-03T13:01:58;6.53;;;1.65;;
41394;SDS011;27136;53.810;8.886;2022-08-03T13:04:27;9.85;;;1.77;;
41394;SDS011;27136;53.810;8.886;2022-08-03T13:06:55;8.13;;;2.30;;
41394;SDS011;27136;53.810;8.886;2022-08-03T13:09:22;10.98;;;3.10;;
41394;SDS011;27136;53.810;8.886;2022-08-03T13:12:03;9.15;;;2.53;;
41394;SDS011;27136;53.810;8.886;2022-08-03T13:14:30;9.48;;;2.20;;
41394;SDS011;27136;53.810;8.886;2022-08-03T13:16:56;9.07;;;1.95;;
41394;SDS011;27136;53.810;8.886;2022-08-03T13:19:22;9.43;;;2.45;;
41394;SDS011;27136;53.810;8.886;2022-08-03T13:21:47;9.55;;;2.15;;
41394;SDS011;27136;53.810;8.886;2022-08-03T13:24:13;19.25;;;2.47;;
41394;SDS011;27136;53.810;8.886;2022-08-03T13:26:39;6.10;;;2.17;;
41394;SDS011;27136;53.810;8.886;2022-08-03T13:29:05;9.60;;;2.92;;
41394;SDS011;27136;53.810;8.886;2022-08-03T13:31:30;8.77;;;1.98;;
41394;SDS011;27136;53.810;8.886;2022-08-03T13:33:56;7.13;;;1.95;;
41394;SDS011;27136;53.810;8.886;2022-08-03T13:36:21;10.90;;;1.90;;
41394;SDS011;27136;53.810;8.886;2022-08-03T13:38:48;8.27;;;1.60;;
41394;SDS011;27136;53.810;8.886;2022-08-03T13:41:14;4.38;;;1.65;;
41394;SDS011;27136;53.810;8.886;2022-08-03T13:43:40;7.38;;;1.80;;
41394;SDS011;27136;53.810;8.886;2022-08-03T13:46:05;8.32;;;3.15;;
41394;SDS011;27136;53.810;8.886;2022-08-03T13:48:31;13.32;;;2.35;;
41394;SDS011;27136;53.810;8.886;2022-08-03T13:50:57;9.88;;;3.15;;
41394;SDS011;27136;53.810;8.886;2022-08-03T13:53:22;9.43;;;2.35;;
41394;SDS011;27136;53.810;8.886;2022-08-03T13:55:48;8.48;;;1.67;;
41394;SDS011;27136;53.810;8.886;2022-08-03T13:58:13;8.05;;;2.35;;
41394;SDS011;27136;53.810;8.886;2022-08-03T14:00:39;5.13;;;1.73;;
41394;SDS011;27136;53.810;8.886;2022-08-03T14:03:05;9.45;;;2.50;;
41394;SDS011;27136;53.810;8.886;2022-08-03T14:05:31;9.55;;;2.55;;
41394;SDS011;27136;53.810;8.886;2022-08-03T14:07:57;7.30;;;2.10;;
41394;SDS011;27136;53.810;8.886;2022-08-03T14:10:22;8.90;;;2.20;;
41394;SDS011;27136;53.810;8.886;2022-08-03T14:12:48;7.88;;;2.08;;
41394;SDS011;27136;53.810;8.886;2022-08-03T14:15:13;6.40;;;2.58;;
41394;SDS011;27136;53.810;8.886;2022-08-03T14:17:39;9.90;;;2.38;;
41394;SDS011;27136;53.810;8.886;2022-08-03T14:20:06;4.13;;;1.67;;
41394;SDS011;27136;53.810;8.886;2022-08-03T14:22:32;6.15;;;1.98;;
41394;SDS011;27136;53.810;8.886;2022-08-03T14:24:59;4.82;;;1.88;;
41394;SDS011;27136;53.810;8.886;2022-08-03T14:27:25;6.97;;;1.83;;
41394;SDS011;27136;53.810;8.886;2022-08-03T14:29:50;7.78;;;1.58;;
41394;SDS011;27136;53.810;8.886;2022-08-03T14:32:16;5.95;;;1.52;;
41394;SDS011;27136;53.810;8.886;2022-08-03T14:34:41;9.55;;;2.20;;
41394;SDS011;27136;53.810;8.886;2022-08-03T14:37:07;8.68;;;1.75;;
41394;SDS011;27136;53.810;8.886;2022-08-03T14:39:32;9.20;;;1.58;;
41394;SDS011;27136;53.810;8.886;2022-08-03T14:41:58;6.03;;;1.80;;
41394;SDS011;27136;53.810;8.886;2022-08-03T14:44:24;6.35;;;2.03;;
41394;SDS011;27136;53.810;8.886;2022-08-03T14:46:49;6.95;;;1.50;;
41394;SDS011;27136;53.810;8.886;2022-08-03T14:49:15;6.53;;;2.95;;
41394;SDS011;27136;53.810;8.886;2022-08-03T14:51:40;9.02;;;1.50;;
41394;SDS011;27136;53.810;8.886;2022-08-03T14:54:06;8.18;;;2.42;;
41394;SDS011;27136;53.810;8.886;2022-08-03T14:56:31;11.63;;;2.60;;
41394;SDS011;27136;53.810;8.886;2022-08-03T14:58:57;7.88;;;1.67;;
41394;SDS011;27136;53.810;8.886;2022-08-03T15:01:22;8.32;;;2.13;;
41394;SDS011;27136;53.810;8.886;2022-08-03T15:03:48;8.02;;;2.03;;
41394;SDS011;27136;53.810;8.886;2022-08-03T15:06:13;7.47;;;2.17;;
41394;SDS011;27136;53.810;8.886;2022-08-03T15:08:45;9.95;;;2.05;;
41394;SDS011;27136;53.810;8.886;2022-08-03T15:11:16;9.85;;;2.38;;
41394;SDS011;27136;53.810;8.886;2022-08-03T15:19:08;8.13;;;2.13;;
41394;SDS011;27136;53.810;8.886;2022-08-03T15:24:22;6.88;;;2.38;;
41394;SDS011;27136;53.810;8.886;2022-08-03T15:26:56;9.07;;;2.53;;
41394;SDS011;27136;53.810;8.886;2022-08-03T15:29:22;13.35;;;3.15;;
41394;SDS011;27136;53.810;8.886;2022-08-03T15:31:51;6.25;;;1.80;;
41394;SDS011;27136;53.810;8.886;2022-08-03T15:34:27;8.43;;;2.05;;
41394;SDS011;27136;53.810;8.886;2022-08-03T15:36:52;11.55;;;2.17;;
41394;SDS011;27136;53.810;8.886;2022-08-03T15:42:04;10.02;;;2.50;;
41394;SDS011;27136;53.810;8.886;2022-08-03T15:44:29;8.85;;;3.15;;
41394;SDS011;27136;53.810;8.886;2022-08-03T15:46:55;7.68;;;2.97;;
41394;SDS011;27136;53.810;8.886;2022-08-03T15:49:21;5.95;;;3.00;;
41394;SDS011;27136;53.810;8.886;2022-08-03T15:51:46;5.95;;;3.10;;
41394;SDS011;27136;53.810;8.886;2022-08-03T15:54:32;10.48;;;4.40;;
41394;SDS011;27136;53.810;8.886;2022-08-03T15:56:58;9.73;;;4.88;;
41394;SDS011;27136;53.810;8.886;2022-08-03T15:59:40;9.50;;;4.90;;
41394;SDS011;27136;53.810;8.886;2022-08-03T16:02:05;9.35;;;3.97;;
41394;SDS011;27136;53.810;8.886;2022-08-03T16:04:34;12.48;;;5.50;;
41394;SDS011;27136;53.810;8.886;2022-08-03T16:07:02;8.73;;;4.43;;
41394;SDS011;27136;53.810;8.886;2022-08-03T16:09:28;11.50;;;5.88;;
41394;SDS011;27136;53.810;8.886;2022-08-03T16:11:57;9.00;;;5.28;;
41394;SDS011;27136;53.810;8.886;2022-08-03T16:14:25;12.07;;;5.50;;
41394;SDS011;27136;53.810;8.886;2022-08-03T16:16:51;11.57;;;6.82;;
41394;SDS011;27136;53.810;8.886;2022-08-03T16:19:16;16.27;;;8.02;;
41394;SDS011;27136;53.810;8.886;2022-08-03T16:21:42;14.38;;;7.80;;
41394;SDS011;27136;53.810;8.886;2022-08-03T16:24:07;19.17;;;7.35;;
41394;SDS011;27136;53.810;8.886;2022-08-03T16:26:33;17.13;;;7.25;;
41394;SDS011;27136;53.810;8.886;2022-08-03T16:28:59;18.13;;;7.45;;
41394;SDS011;27136;53.810;8.886;2022-08-03T16:31:24;17.55;;;6.95;;
41394;SDS011;27136;53.810;8.886;2022-08-03T16:33:51;18.13;;;7.35;;
41394;SDS011;27136;53.810;8.886;2022-08-03T16:36:17;16.92;;;6.50;;
41394;SDS011;27136;53.810;8.886;2022-08-03T16:38:43;20.67;;;7.25;;
41394;SDS011;27136;53.810;8.886;2022-08-03T16:41:09;14.65;;;6.40;;
41394;SDS011;27136;53.810;8.886;2022-08-03T16:43:34;19.75;;;8.07;;
41394;SDS011;27136;53.810;8.886;2022-08-03T16:46:00;16.80;;;6.55;;
41394;SDS011;27136;53.810;8.886;2022-08-03T16:48:26;17.33;;;6.85;;
41394;SDS011;27136;53.810;8.886;2022-08-03T16:50:51;16.60;;;7.07;;
41394;SDS011;27136;53.810;8.886;2022-08-03T16:53:17;22.23;;;8.10;;
41394;SDS011;27136;53.810;8.886;2022-08-03T16:55:43;11.68;;;6.15;;
41394;SDS011;27136;53.810;8.886;2022-08-03T16:58:10;16.38;;;7.47;;
41394;SDS011;27136;53.810;8.886;2022-08-03T17:00:36;17.08;;;8.07;;
41394;SDS011;27136;53.810;8.886;2022-08-03T17:03:02;16.75;;;8.30;;
41394;SDS011;27136;53.810;8.886;2022-08-03T17:05:28;19.45;;;6.28;;
41394;SDS011;27136;53.810;8.886;2022-08-03T17:07:54;19.42;;;7.15;;
41394;SDS011;27136;53.810;8.886;2022-08-03T17:10:19;11.10;;;5.85;;
41394;SDS011;27136;53.810;8.886;2022-08-03T17:12:46;15.30;;;6.30;;
41394;SDS011;27136;53.810;8.886;2022-08-03T17:15:12;20.50;;;6.32;;
41394;SDS011;27136;53.810;8.886;2022-08-03T17:17:38;15.32;;;5.85;;
41394;SDS011;27136;53.810;8.886;2022-08-03T17:20:09;20.50;;;7.95;;
41394;SDS011;27136;53.810;8.886;2022-08-03T17:22:38;18.80;;;6.90;;
41394;SDS011;27136;53.810;8.886;2022-08-03T17:25:17;15.02;;;5.72;;
41394;SDS011;27136;53.810;8.886;2022-08-03T17:27:43;13.75;;;6.55;;
41394;SDS011;27136;53.810;8.886;2022-08-03T17:30:11;20.70;;;7.77;;
41394;SDS011;27136;53.810;8.886;2022-08-03T17:32:40;21.95;;;7.88;;
41394;SDS011;27136;53.810;8.886;2022-08-03T17:35:07;14.02;;;6.63;;
41394;SDS011;27136;53.810;8.886;2022-08-03T17:37:33;19.08;;;6.35;;
41394;SDS011;27136;53.810;8.886;2022-08-03T17:39:59;15.75;;;6.00;;
41394;SDS011;27136;53.810;8.886;2022-08-03T17:42:25;20.30;;;7.15;;
41394;SDS011;27136;53.810;8.886;2022-08-03T17:44:51;14.60;;;5.38;;
41394;SDS011;27136;53.810;8.886;2022-08-03T17:47:20;21.73;;;7.18;;
41394;SDS011;27136;53.810;8.886;2022-08-03T17:49:45;18.15;;;7.55;;
41394;SDS011;27136;53.810;8.886;2022-08-03T17:52:25;13.88;;;5.93;;
41394;SDS011;27136;53.810;8.886;2022-08-03T18:00:33;13.48;;;5.97;;
41394;SDS011;27136;53.810;8.886;2022-08-03T18:03:25;12.27;;;6.05;;
41394;SDS011;27136;53.810;8.886;2022-08-03T18:06:03;16.17;;;6.95;;
41394;SDS011;27136;53.810;8.886;2022-08-03T18:08:30;14.45;;;5.82;;
41394;SDS011;27136;53.810;8.886;2022-08-03T18:13:43;15.10;;;5.95;;
41394;SDS011;27136;53.810;8.886;2022-08-03T18:16:16;18.55;;;6.40;;
41394;SDS011;27136;53.810;8.886;2022-08-03T18:18:48;17.48;;;5.43;;
41394;SDS011;27136;53.810;8.886;2022-08-03T18:21:18;18.52;;;6.55;;
41394;SDS011;27136;53.810;8.886;2022-08-03T18:23:47;19.75;;;6.13;;
41394;SDS011;27136;53.810;8.886;2022-08-03T18:26:14;23.80;;;6.60;;
41394;SDS011;27136;53.810;8.886;2022-08-03T18:28:40;17.13;;;5.15;;
41394;SDS011;27136;53.810;8.886;2022-08-03T18:31:10;21.42;;;5.57;;
41394;SDS011;27136;53.810;8.886;2022-08-03T18:33:39;16.20;;;6.18;;
41394;SDS011;27136;53.810;8.886;2022-08-03T18:36:09;14.00;;;6.13;;
41394;SDS011;27136;53.810;8.886;2022-08-03T18:38:39;22.02;;;6.97;;
41394;SDS011;27136;53.810;8.886;2022-08-03T18:41:06;17.00;;;6.47;;
41394;SDS011;27136;53.810;8.886;2022-08-03T18:43:32;17.50;;;6.38;;
41394;SDS011;27136;53.810;8.886;2022-08-03T18:45:58;19.38;;;6.85;;
41394;SDS011;27136;53.810;8.886;2022-08-03T18:48:34;16.35;;;5.68;;
41394;SDS011;27136;53.810;8.886;2022-08-03T18:51:13;14.82;;;6.13;;
41394;SDS011;27136;53.810;8.886;2022-08-03T18:53:45;17.65;;;6.72;;
41394;SDS011;27136;53.810;8.886;2022-08-03T18:56:44;15.77;;;5.13;;
41394;SDS011;27136;53.810;8.886;2022-08-03T18:59:22;14.73;;;5.50;;
41394;SDS011;27136;53.810;8.886;2022-08-03T19:01:57;15.52;;;5.88;;
41394;SDS011;27136;53.810;8.886;2022-08-03T19:04:32;20.70;;;7.07;;
41394;SDS011;27136;53.810;8.886;2022-08-03T19:07:08;15.50;;;5.97;;
41394;SDS011;27136;53.810;8.886;2022-08-03T19:12:15;16.35;;;5.55;;
41394;SDS011;27136;53.810;8.886;2022-08-03T19:14:43;19.67;;;6.20;;
41394;SDS011;27136;53.810;8.886;2022-08-03T19:17:13;20.52;;;7.03;;
41394;SDS011;27136;53.810;8.886;2022-08-03T19:19:41;18.77;;;6.35;;
41394;SDS011;27136;53.810;8.886;2022-08-03T19:22:09;18.08;;;6.60;;
41394;SDS011;27136;53.810;8.886;2022-08-03T19:24:35;18.10;;;5.75;;
41394;SDS011;27136;53.810;8.886;2022-08-03T19:27:02;23.80;;;6.83;;
41394;SDS011;27136;53.810;8.886;2022-08-03T19:29:29;18.92;;;6.28;;
41394;SDS011;27136;53.810;8.886;2022-08-03T19:31:55;18.95;;;6.13;;
41394;SDS011;27136;53.810;8.886;2022-08-03T19:34:22;16.52;;;6.03;;
41394;SDS011;27136;53.810;8.886;2022-08-03T19:36:48;15.38;;;5.90;;
41394;SDS011;27136;53.810;8.886;2022-08-03T19:39:14;14.60;;;6.07;;
41394;SDS011;27136;53.810;8.886;2022-08-03T19:41:40;15.68;;;6.38;;
41394;SDS011;27136;53.810;8.886;2022-08-03T19:44:11;16.27;;;5.28;;
41394;SDS011;27136;53.810;8.886;2022-08-03T19:46:46;17.33;;;6.18;;
41394;SDS011;27136;53.810;8.886;2022-08-03T19:49:17;13.65;;;5.90;;
41394;SDS011;27136;53.810;8.886;2022-08-03T19:51:47;17.63;;;6.47;;
41394;SDS011;27136;53.810;8.886;2022-08-03T19:54:16;17.60;;;5.82;;
41394;SDS011;27136;53.810;8.886;2022-08-03T19:56:48;17.35;;;6.53;;
41394;SDS011;27136;53.810;8.886;2022-08-03T19:59:18;14.88;;;7.15;;
41394;SDS011;27136;53.810;8.886;2022-08-03T20:01:46;15.98;;;6.03;;
41394;SDS011;27136;53.810;8.886;2022-08-03T20:04:12;14.80;;;5.60;;
41394;SDS011;27136;53.810;8.886;2022-08-03T20:06:38;16.95;;;5.97;;